Time;durP1;ratioP1;P1;durP2;ratioP2;P2;SDS_P1;SDS_P2;PMS_P1;PMS_P2;Temp;Humidity;BMP_temperature;BMP_pressure;BME280_temperature;BME280_humidity;BME280_pressure;Samples;Min_cycle;Max_cycle;Signal;HPM_P1;HPM_P2
2022/03/22 00:02:14;;;;;;;15.70;11.57;;;;;;;7.25;100.00;100580.66;5043271;28;20201;-78
2022/03/22 00:04:43;;;;;;;19.53;11.63;;;;;;;7.20;100.00;100582.56;5045501;28;20195;-78
2022/03/22 00:07:11;;;;;;;14.57;11.07;;;;;;;7.12;100.00;100587.16;5043544;28;20190;-78
2022/03/22 00:09:40;;;;;;;14.13;11.07;;;;;;;7.17;100.00;100582.63;5043330;28;20193;-78
2022/03/22 00:12:09;;;;;;;18.43;11.43;;;;;;;6.88;100.00;100580.78;5049195;28;20228;-77
2022/03/22 00:14:38;;;;;;;16.60;12.70;;;;;;;6.77;100.00;100575.78;5035619;28;20200;-78
2022/03/22 00:17:29;;;;;;;19.63;13.57;;;;;;;7.05;100.00;100581.22;4994142;28;20271;-78
2022/03/22 00:19:59;;;;;;;18.87;14.67;;;;;;;6.87;100.00;100573.78;4994169;28;20273;-78
2022/03/22 00:22:28;;;;;;;21.10;14.10;;;;;;;6.67;100.00;100586.59;5004498;28;20241;-78
2022/03/22 00:24:56;;;;;;;17.67;13.17;;;;;;;6.52;100.00;100582.56;5003726;28;20199;-78
2022/03/22 00:27:25;;;;;;;19.40;14.00;;;;;;;6.41;100.00;100577.56;5000328;28;20192;-77
2022/03/22 00:29:53;;;;;;;24.63;14.80;;;;;;;6.35;100.00;100584.72;5003965;28;20211;-78
2022/03/22 00:32:22;;;;;;;18.77;14.10;;;;;;;6.47;100.00;100577.44;5004058;28;20320;-79
2022/03/22 00:34:53;;;;;;;23.97;15.20;;;;;;;6.48;100.00;100575.66;5034538;28;20197;-78
2022/03/22 00:37:22;;;;;;;20.10;14.23;;;;;;;6.49;100.00;100580.88;5028099;28;20225;-79
2022/03/22 00:39:51;;;;;;;21.07;14.90;;;;;;;6.53;100.00;100579.03;5033401;28;20194;-78
2022/03/22 00:42:22;;;;;;;22.47;13.93;;;;;;;6.60;100.00;100572.72;5030023;28;20229;-78
2022/03/22 00:44:54;;;;;;;23.57;14.70;;;;;;;6.63;100.00;100569.13;5031382;28;20194;-78
2022/03/22 00:47:23;;;;;;;21.70;15.87;;;;;;;6.78;100.00;100576.66;5028602;28;20190;-78
2022/03/22 00:49:53;;;;;;;21.27;15.33;;;;;;;6.66;100.00;100575.22;5031925;28;20200;-78
2022/03/22 00:52:21;;;;;;;23.07;15.50;;;;;;;6.58;100.00;100578.03;5015392;28;20284;-79
2022/03/22 00:54:50;;;;;;;19.33;14.67;;;;;;;6.68;100.00;100575.16;5053109;28;20197;-78
2022/03/22 00:57:18;;;;;;;19.80;14.87;;;;;;;6.59;100.00;100571.00;5042895;28;20205;-78
2022/03/22 01:00:04;;;;;;;21.10;14.10;;;;;;;6.72;100.00;100571.53;5047838;28;20299;-78
2022/03/22 01:02:35;;;;;;;20.73;14.13;;;;;;;6.49;100.00;100577.38;5049808;28;20196;-79
2022/03/22 01:05:10;;;;;;;20.90;14.27;;;;;;;6.52;100.00;100578.16;5048624;28;20209;-79
2022/03/22 01:07:40;;;;;;;18.63;12.73;;;;;;;6.48;100.00;100573.03;5038615;28;20205;-78
2022/03/22 01:10:10;;;;;;;16.97;11.70;;;;;;;6.31;100.00;100570.78;5044663;28;20644;-78
2022/03/22 01:12:40;;;;;;;16.53;12.23;;;;;;;6.23;100.00;100572.75;5033787;28;20269;-78
2022/03/22 01:15:15;;;;;;;18.77;12.73;;;;;;;6.28;100.00;100569.09;5001888;28;20199;-78
2022/03/22 01:17:44;;;;;;;18.40;12.33;;;;;;;6.29;100.00;100568.22;5003560;28;20657;-78
2022/03/22 01:20:16;;;;;;;16.03;11.93;;;;;;;6.33;100.00;100579.50;5001502;28;20195;-78
2022/03/22 01:22:49;;;;;;;17.40;11.93;;;;;;;6.43;100.00;100580.16;4997912;28;20226;-78
2022/03/22 01:25:20;;;;;;;17.57;11.33;;;;;;;6.27;100.00;100577.91;5001630;28;20195;-79
2022/03/22 01:27:49;;;;;;;20.80;12.40;;;;;;;6.27;100.00;100570.00;5000682;28;20252;-78
2022/03/22 01:30:22;;;;;;;16.77;12.00;;;;;;;6.27;100.00;100566.50;5003407;28;20192;-78
2022/03/22 01:32:51;;;;;;;17.03;12.13;;;;;;;6.31;100.00;100565.53;5006308;28;20218;-78
2022/03/22 01:35:26;;;;;;;17.77;11.67;;;;;;;6.39;100.00;100563.59;4999730;28;20665;-78
2022/03/22 01:37:56;;;;;;;19.97;12.47;;;;;;;6.40;100.00;100560.06;4999142;28;20203;-78
2022/03/22 01:40:30;;;;;;;16.93;11.03;;;;;;;6.39;100.00;100555.69;5004483;28;20281;-78
2022/03/22 01:42:59;;;;;;;17.87;12.30;;;;;;;6.27;100.00;100566.50;5001050;28;20273;-78
2022/03/22 01:45:28;;;;;;;18.97;11.57;;;;;;;6.12;100.00;100559.84;5003081;28;20193;-79
2022/03/22 01:47:59;;;;;;;17.53;12.10;;;;;;;6.29;100.00;100557.69;4999595;28;20207;-79
2022/03/22 01:50:30;;;;;;;17.73;12.30;;;;;;;6.34;100.00;100551.44;5003696;28;20191;-78
2022/03/22 01:53:00;;;;;;;18.80;12.00;;;;;;;6.07;100.00;100559.06;5001654;28;20226;-78
2022/03/22 01:55:30;;;;;;;15.83;11.47;;;;;;;5.99;100.00;100555.78;5003204;28;20206;-78
2022/03/22 01:57:58;;;;;;;17.73;12.27;;;;;;;6.02;100.00;100555.69;5001454;28;20202;-78
2022/03/22 02:00:27;;;;;;;19.23;12.00;;;;;;;5.95;100.00;100548.84;5005411;28;20661;-78
2022/03/22 02:05:54;;;;;;;17.97;12.07;;;;;;;5.84;100.00;100538.53;4992868;28;20203;-78
2022/03/22 02:08:29;;;;;;;24.23;11.70;;;;;;;5.69;100.00;100529.22;4997957;28;20187;-78
2022/03/22 02:10:59;;;;;;;16.37;12.40;;;;;;;5.66;100.00;100533.66;5003039;28;20206;-77
2022/03/22 02:13:27;;;;;;;17.97;12.10;;;;;;;5.69;100.00;100526.59;5002208;28;20210;-78
2022/03/22 02:15:59;;;;;;;17.70;12.83;;;;;;;5.71;100.00;100540.56;4996094;28;20272;-77
2022/03/22 02:18:28;;;;;;;19.90;12.93;;;;;;;5.55;100.00;100531.28;4999864;28;20213;-78
2022/03/22 02:21:00;;;;;;;22.47;12.63;;;;;;;5.49;100.00;100531.41;5002031;28;20203;-78
2022/03/22 02:23:52;;;;;;;20.60;13.13;;;;;;;5.40;100.00;100536.84;4999262;28;20205;-78
2022/03/22 02:26:38;;;;;;;19.67;13.07;;;;;;;5.51;100.00;100527.00;5001238;28;20218;-79
2022/03/22 02:29:07;;;;;;;20.17;13.53;;;;;;;5.44;100.00;100533.28;5001094;28;20191;-78
2022/03/22 02:31:36;;;;;;;22.23;13.40;;;;;;;5.59;100.00;100529.44;5001872;28;20231;-78
2022/03/22 02:34:04;;;;;;;17.40;12.57;;;;;;;5.42;100.00;100525.44;5005485;28;20370;-77
2022/03/22 02:36:36;;;;;;;18.63;12.70;;;;;;;5.45;100.00;100525.34;5000835;28;20215;-78
2022/03/22 02:39:07;;;;;;;20.33;12.87;;;;;;;5.49;100.00;100539.28;5002019;28;20238;-79
2022/03/22 02:41:35;;;;;;;18.03;12.90;;;;;;;5.34;100.00;100524.72;4996997;28;20237;-79
2022/03/22 02:44:03;;;;;;;18.10;13.37;;;;;;;5.25;100.00;100519.66;4998577;28;20203;-78
2022/03/22 02:46:33;;;;;;;19.33;13.23;;;;;;;5.03;100.00;100529.72;5067781;28;20647;-79
2022/03/22 02:49:02;;;;;;;20.40;13.60;;;;;;;4.95;100.00;100522.88;5062722;28;20192;-79
2022/03/22 02:51:32;;;;;;;18.37;12.60;;;;;;;5.04;100.00;100531.44;5066258;28;20227;-78
2022/03/22 02:54:06;;;;;;;18.17;12.77;;;;;;;5.10;100.00;100533.94;5064798;28;20284;-78
2022/03/22 02:56:34;;;;;;;19.77;13.30;;;;;;;5.01;100.00;100528.00;5057983;28;20254;-78
2022/03/22 02:59:03;;;;;;;20.23;12.67;;;;;;;5.22;100.00;100530.22;5068483;28;20193;-79
2022/03/22 03:01:33;;;;;;;20.83;12.87;;;;;;;5.00;100.00;100527.13;5067504;28;20193;-78
2022/03/22 03:04:02;;;;;;;21.77;13.23;;;;;;;4.88;100.00;100535.25;5051759;28;20207;-78
2022/03/22 03:06:30;;;;;;;17.57;11.70;;;;;;;4.94;100.00;100532.53;5050915;28;20201;-79
2022/03/22 03:08:59;;;;;;;16.63;11.97;;;;;;;4.82;100.00;100537.97;5045819;28;20205;-78
2022/03/22 03:11:29;;;;;;;17.63;12.30;;;;;;;4.86;100.00;100539.66;5049175;28;20193;-78
2022/03/22 03:16:44;;;;;;;18.20;12.43;;;;;;;4.74;100.00;100537.28;4969936;28;20199;-79
2022/03/22 03:19:14;;;;;;;21.03;13.40;;;;;;;4.75;100.00;100532.00;4964374;28;20199;-79
2022/03/22 03:21:42;;;;;;;19.60;12.63;;;;;;;4.95;100.00;100539.50;4946224;28;20204;-78
2022/03/22 03:24:11;;;;;;;16.67;12.10;;;;;;;4.87;100.00;100536.16;4962018;28;20195;-78
2022/03/22 03:26:41;;;;;;;17.63;12.07;;;;;;;4.73;100.00;100541.66;4988567;28;20608;-78
2022/03/22 03:29:10;;;;;;;19.97;12.37;;;;;;;4.59;100.00;100547.13;4989227;28;20202;-78
2022/03/22 03:31:38;;;;;;;17.67;11.87;;;;;;;4.70;100.00;100548.69;5001920;28;20189;-79
2022/03/22 03:34:06;;;;;;;16.57;11.30;;;;;;;4.75;100.00;100544.25;5045718;28;20248;-78
2022/03/22 03:36:35;;;;;;;19.47;11.93;;;;;;;4.83;100.00;100552.88;5050073;28;20189;-78
2022/03/22 03:39:05;;;;;;;22.70;12.77;;;;;;;4.93;100.00;100551.78;5037741;28;20642;-78
2022/03/22 03:47:11;;;;;;;16.40;11.47;;;;;;;4.47;100.00;100554.34;4991482;28;20192;-78
2022/03/22 03:49:43;;;;;;;18.70;11.70;;;;;;;4.43;100.00;100547.41;4996226;28;20195;-78
2022/03/22 03:52:13;;;;;;;17.97;11.60;;;;;;;4.38;100.00;100552.75;5003679;28;20230;-78
2022/03/22 03:54:43;;;;;;;18.13;10.97;;;;;;;4.36;100.00;100551.91;5000570;28;20210;-78
2022/03/22 03:57:13;;;;;;;20.27;11.07;;;;;;;4.15;100.00;100558.38;5038838;28;20201;-78
2022/03/22 03:59:44;;;;;;;17.03;11.10;;;;;;;4.14;100.00;100553.13;5005112;28;20199;-78
2022/03/22 04:02:13;;;;;;;16.87;11.03;;;;;;;4.02;100.00;100552.41;5011082;28;20211;-78
2022/03/22 04:04:44;;;;;;;15.00;10.60;;;;;;;4.10;100.00;100554.06;5011983;28;20198;-78
2022/03/22 04:07:14;;;;;;;17.73;10.27;;;;;;;3.95;100.00;100556.00;5012601;28;20219;-78
2022/03/22 04:09:42;;;;;;;15.17;11.00;;;;;;;3.90;100.00;100559.59;5012426;28;20232;-78
2022/03/22 04:12:12;;;;;;;14.27;10.57;;;;;;;3.82;100.00;100557.09;5011563;28;20206;-78
2022/03/22 04:14:40;;;;;;;17.07;10.93;;;;;;;3.81;100.00;100560.59;5015748;28;20205;-77
2022/03/22 04:17:10;;;;;;;16.30;10.70;;;;;;;3.57;100.00;100553.94;5012193;28;20205;-78
2022/03/22 04:19:39;;;;;;;18.53;11.47;;;;;;;3.54;100.00;100559.19;5007819;28;20253;-78
2022/03/22 04:22:08;;;;;;;19.03;11.30;;;;;;;3.53;100.00;100556.59;5001958;28;20646;-78
2022/03/22 04:24:43;;;;;;;16.03;11.07;;;;;;;3.62;100.00;100559.13;5020939;28;20250;-78
2022/03/22 04:32:45;;;;;;;15.10;10.80;;;;;;;3.57;100.00;100563.53;5014645;28;20292;-78
2022/03/22 04:35:17;;;;;;;15.07;11.27;;;;;;;3.48;100.00;100568.91;4965639;28;20202;-78
2022/03/22 04:37:49;;;;;;;14.53;10.70;;;;;;;3.45;100.00;100561.94;5008442;28;20198;-78
2022/03/22 04:40:18;;;;;;;16.97;11.67;;;;;;;3.38;100.00;100569.03;5014310;28;20199;-78
2022/03/22 04:42:47;;;;;;;17.23;11.70;;;;;;;3.42;100.00;100561.97;5007316;28;20226;-78
2022/03/22 04:45:16;;;;;;;19.03;12.73;;;;;;;3.39;100.00;100575.13;5029423;28;20246;-78
2022/03/22 04:47:46;;;;;;;18.00;11.80;;;;;;;3.53;100.00;100577.56;5051452;28;20193;-78
2022/03/22 04:50:16;;;;;;;16.13;12.17;;;;;;;3.53;100.00;100570.56;4998181;28;20195;-77
2022/03/22 04:58:19;;;;;;;15.67;11.77;;;;;;;3.24;100.00;100589.25;4993803;28;20199;-79
2022/03/22 05:00:47;;;;;;;15.67;11.43;;;;;;;3.09;100.00;100581.59;5000232;28;20188;-78
2022/03/22 05:03:17;;;;;;;16.90;10.80;;;;;;;2.85;100.00;100578.31;5001702;28;20195;-78
2022/03/22 05:08:36;;;;;;;17.97;10.87;;;;;;;3.00;100.00;100584.28;4996880;28;20237;-78
2022/03/22 05:11:04;;;;;;;15.80;11.03;;;;;;;3.12;100.00;100587.63;5001929;28;20240;-78
2022/03/22 05:13:34;;;;;;;18.13;12.27;;;;;;;3.05;100.00;100598.19;4993146;28;20222;-78
2022/03/22 05:16:03;;;;;;;17.47;11.17;;;;;;;3.14;100.00;100598.94;5000099;28;20191;-78
2022/03/22 05:18:34;;;;;;;17.83;11.60;;;;;;;3.20;100.00;100595.41;4994300;28;20275;-78
2022/03/22 05:21:04;;;;;;;19.80;12.70;;;;;;;3.12;100.00;100590.25;4972001;28;20192;-78
2022/03/22 05:23:34;;;;;;;15.87;11.60;;;;;;;3.04;100.00;100594.69;4967308;28;20257;-78
2022/03/22 05:26:03;;;;;;;16.13;11.83;;;;;;;3.07;100.00;100589.41;4971343;28;20200;-78
2022/03/22 05:28:34;;;;;;;18.77;11.30;;;;;;;3.04;100.00;100601.69;4964889;28;20342;-78
2022/03/22 05:31:04;;;;;;;18.23;12.83;;;;;;;3.01;100.00;100597.34;4967574;28;20287;-77
2022/03/22 05:33:35;;;;;;;17.07;11.80;;;;;;;2.94;100.00;100603.53;4971218;28;20270;-77
2022/03/22 05:36:04;;;;;;;17.47;12.03;;;;;;;2.93;100.00;100601.78;4972904;28;20196;-77
2022/03/22 05:38:33;;;;;;;18.37;12.60;;;;;;;3.02;100.00;100601.72;4973163;28;20191;-78
2022/03/22 05:41:02;;;;;;;20.00;12.40;;;;;;;2.92;100.00;100599.19;5004899;28;20211;-78
2022/03/22 05:43:30;;;;;;;16.10;11.47;;;;;;;2.68;100.00;100595.91;4997239;28;20260;-77
2022/03/22 05:45:59;;;;;;;18.90;12.20;;;;;;;2.56;100.00;100596.03;4992536;28;20250;-77
2022/03/22 05:48:29;;;;;;;19.00;11.80;;;;;;;2.53;100.00;100596.06;5001622;28;20237;-78
2022/03/22 05:51:00;;;;;;;19.93;12.37;;;;;;;2.40;100.00;100594.41;5048885;28;20201;-78
2022/03/22 05:53:28;;;;;;;16.70;11.37;;;;;;;2.40;100.00;100592.66;5048835;28;20220;-78
2022/03/22 05:55:56;;;;;;;17.90;10.87;;;;;;;2.49;100.00;100604.78;5015653;28;20243;-78
2022/03/22 05:58:25;;;;;;;20.07;12.17;;;;;;;2.48;100.00;100597.81;5045263;28;20193;-77
2022/03/22 06:00:53;;;;;;;18.23;11.93;;;;;;;2.45;100.00;100606.56;5052611;28;20197;-78
2022/03/22 06:03:22;;;;;;;14.57;11.07;;;;;;;2.47;100.00;100596.97;5050111;28;20197;-77
2022/03/22 06:05:52;;;;;;;18.70;11.97;;;;;;;2.46;100.00;100591.75;5043130;28;20189;-78
2022/03/22 06:08:22;;;;;;;18.27;11.73;;;;;;;2.67;100.00;100596.78;4997508;28;20268;-77
2022/03/22 06:10:50;;;;;;;19.37;12.73;;;;;;;2.53;100.00;100591.69;5026301;28;20649;-77
2022/03/22 06:13:19;;;;;;;20.87;12.73;;;;;;;2.68;100.00;100597.66;5022654;28;20197;-77
2022/03/22 06:15:52;;;;;;;20.27;12.53;;;;;;;2.90;100.00;100596.59;5030282;28;20190;-77
2022/03/22 06:18:22;;;;;;;19.30;13.47;;;;;;;2.83;100.00;100594.91;5023749;28;20233;-77
2022/03/22 06:20:50;;;;;;;19.83;12.73;;;;;;;3.00;100.00;100600.00;5028286;28;20193;-78
2022/03/22 06:23:19;;;;;;;21.57;13.90;;;;;;;3.15;100.00;100605.06;5025086;28;20201;-78
2022/03/22 06:25:51;;;;;;;21.03;14.33;;;;;;;3.25;100.00;100608.44;5018473;28;20252;-78
2022/03/22 06:28:19;;;;;;;20.43;13.73;;;;;;;3.36;100.00;100610.06;4999247;28;20199;-78
2022/03/22 06:30:48;;;;;;;20.23;13.47;;;;;;;3.34;100.00;100610.97;5000946;28;20198;-78
2022/03/22 06:33:18;;;;;;;19.73;13.80;;;;;;;3.40;100.00;100603.06;4997056;28;20191;-78
2022/03/22 06:35:48;;;;;;;23.50;14.30;;;;;;;3.52;100.00;100607.28;5002397;28;20214;-78
2022/03/22 06:38:16;;;;;;;20.00;14.23;;;;;;;3.65;100.00;100600.97;4998989;28;20199;-77
2022/03/22 06:40:46;;;;;;;21.83;13.37;;;;;;;3.75;100.00;100602.59;5001335;28;20195;-78
2022/03/22 06:43:17;;;;;;;19.23;14.00;;;;;;;3.80;100.00;100607.78;4991769;28;20219;-78
2022/03/22 06:45:48;;;;;;;23.53;14.20;;;;;;;4.03;100.00;100609.19;5003974;28;20200;-78
2022/03/22 06:48:17;;;;;;;22.67;14.70;;;;;;;4.05;100.00;100609.19;5002390;28;20226;-78
2022/03/22 06:50:47;;;;;;;19.53;14.07;;;;;;;4.19;100.00;100609.88;5001956;28;20187;-78
2022/03/22 06:53:16;;;;;;;24.93;14.77;;;;;;;4.25;100.00;100606.28;4995345;28;20264;-78
2022/03/22 06:55:45;;;;;;;21.27;14.83;;;;;;;4.32;100.00;100607.91;5001622;28;20223;-78
2022/03/22 06:58:14;;;;;;;23.00;13.87;;;;;;;4.49;100.00;100605.91;5057535;28;20203;-78
2022/03/22 07:00:45;;;;;;;21.57;14.67;;;;;;;4.60;100.00;100611.84;4995716;28;20220;-78
2022/03/22 07:03:13;;;;;;;22.80;15.43;;;;;;;4.65;100.00;100606.53;4999029;28;20203;-78
2022/03/22 07:05:45;;;;;;;21.67;14.60;;;;;;;4.86;100.00;100610.53;5001955;28;20228;-78
2022/03/22 07:08:15;;;;;;;25.87;14.87;;;;;;;4.99;100.00;100617.31;5001203;28;20195;-78
2022/03/22 07:11:47;;;;;;;21.03;14.13;;;;;;;5.10;100.00;100606.59;5004004;28;20265;-78
2022/03/22 07:13:33;;;;;;;22.97;14.70;;;;;;;5.15;100.00;100610.88;4991581;28;20195;-78
2022/03/22 07:16:02;;;;;;;20.43;14.10;;;;;;;5.28;100.00;100611.53;5003989;28;20218;-78
2022/03/22 07:18:31;;;;;;;21.27;13.73;;;;;;;5.42;100.00;100608.66;5056978;28;20207;-78
2022/03/22 07:21:04;;;;;;;19.70;14.57;;;;;;;5.55;100.00;100609.25;4999209;28;20647;-78
2022/03/22 07:23:33;;;;;;;24.03;16.30;;;;;;;5.72;100.00;100612.41;5049060;28;20201;-79
2022/03/22 07:26:03;;;;;;;21.37;15.83;;;;;;;5.89;100.00;100612.94;5046641;28;20287;-79
2022/03/22 07:28:31;;;;;;;21.73;15.43;;;;;;;6.05;100.00;100612.63;5048316;28;20200;-78
2022/03/22 07:31:00;;;;;;;23.77;16.10;;;;;;;6.27;100.00;100619.09;5048453;28;20260;-78
2022/03/22 07:33:33;;;;;;;26.17;16.27;;;;;;;6.41;100.00;100610.91;5044858;28;20243;-79
2022/03/22 07:36:01;;;;;;;22.20;16.20;;;;;;;6.59;100.00;100608.72;5048896;28;20217;-79
2022/03/22 07:38:30;;;;;;;21.97;16.10;;;;;;;6.75;100.00;100611.81;5046286;28;20189;-79
2022/03/22 07:40:58;;;;;;;20.77;15.57;;;;;;;6.95;100.00;100610.44;5033760;28;20233;-79
2022/03/22 07:43:31;;;;;;;24.87;16.30;;;;;;;7.05;100.00;100610.19;4995800;28;20195;-79
2022/03/22 07:46:02;;;;;;;21.03;15.13;;;;;;;7.03;100.00;100625.16;5000916;28;20244;-79
2022/03/22 07:48:32;;;;;;;21.33;14.97;;;;;;;6.97;100.00;100617.41;4990528;28;20202;-79
2022/03/22 07:53:46;;;;;;;24.27;16.30;;;;;;;7.10;100.00;100613.56;4990268;28;20242;-79
2022/03/22 07:56:14;;;;;;;22.73;17.00;;;;;;;7.07;100.00;100618.03;5000936;28;20215;-79
2022/03/22 07:58:42;;;;;;;26.37;17.33;;;;;;;7.18;100.00;100619.47;5000019;28;20187;-78
2022/03/22 08:01:11;;;;;;;25.07;16.50;;;;;;;7.16;100.00;100617.81;4999369;28;20336;-80
2022/03/22 08:03:43;;;;;;;21.23;16.43;;;;;;;7.53;100.00;100620.31;4998821;28;20191;-80
2022/03/22 08:06:11;;;;;;;23.43;16.00;;;;;;;7.62;100.00;100619.16;5000604;28;20195;-79
2022/03/22 08:08:43;;;;;;;23.03;15.80;;;;;;;7.87;100.00;100617.56;4995600;28;20253;-79
2022/03/22 08:11:12;;;;;;;23.97;17.00;;;;;;;8.15;100.00;100608.81;5000210;28;20203;-79
2022/03/22 08:13:43;;;;;;;23.67;16.53;;;;;;;8.26;100.00;100604.91;4999326;28;20191;-78
2022/03/22 08:16:11;;;;;;;22.40;14.67;;;;;;;8.47;100.00;100611.31;5000550;28;20215;-79
2022/03/22 08:18:41;;;;;;;20.13;15.00;;;;;;;8.73;100.00;100610.50;4999026;28;20191;-79
2022/03/22 08:21:10;;;;;;;20.53;15.23;;;;;;;8.95;100.00;100612.41;4990370;28;20195;-79
2022/03/22 08:23:38;;;;;;;21.90;15.40;;;;;;;9.08;100.00;100606.66;4996418;28;20222;-78
2022/03/22 08:26:06;;;;;;;18.77;14.73;;;;;;;9.31;100.00;100610.28;5002621;28;20195;-78
2022/03/22 08:28:35;;;;;;;19.60;15.47;;;;;;;9.49;100.00;100611.41;5005106;28;20199;-78
2022/03/22 08:31:04;;;;;;;19.37;14.83;;;;;;;9.64;100.00;100611.69;4999736;28;20191;-79
2022/03/22 08:33:32;;;;;;;22.03;14.27;;;;;;;9.65;100.00;100608.16;5046960;28;20197;-79
2022/03/22 08:36:04;;;;;;;18.77;13.50;;;;;;;9.87;100.00;100608.22;5045522;28;20767;-78
2022/03/22 08:38:37;;;;;;;20.83;13.37;;;;;;;10.11;100.00;100598.44;4991069;28;20211;-79
2022/03/22 08:41:06;;;;;;;17.27;13.60;;;;;;;10.25;100.00;100600.59;4986289;28;20207;-79
2022/03/22 08:43:36;;;;;;;17.83;13.23;;;;;;;10.48;100.00;100599.69;4987277;28;20205;-78
2022/03/22 08:46:05;;;;;;;20.30;14.40;;;;;;;10.30;100.00;100594.19;4987274;28;20705;-78
2022/03/22 08:48:34;;;;;;;20.93;12.93;;;;;;;10.55;100.00;100601.16;4899247;29;20202;-78
2022/03/22 08:51:05;;;;;;;15.33;12.23;;;;;;;10.64;98.89;100599.94;4906186;29;20234;-79
2022/03/22 08:53:34;;;;;;;24.50;14.03;;;;;;;10.72;98.79;100601.34;4933038;29;20193;-78
2022/03/22 08:56:06;;;;;;;18.10;13.13;;;;;;;10.87;97.16;100595.38;4947999;28;20215;-79
2022/03/22 08:58:35;;;;;;;18.17;13.60;;;;;;;10.93;95.52;100588.97;4990366;28;20311;-79
2022/03/22 09:01:03;;;;;;;18.90;12.80;;;;;;;10.94;93.14;100593.34;4989793;28;20186;-80
2022/03/22 09:03:32;;;;;;;21.10;13.67;;;;;;;10.94;91.94;100585.38;4990677;28;20191;-79
2022/03/22 09:06:09;;;;;;;19.17;13.63;;;;;;;10.92;91.26;100594.34;4989323;28;20228;-79
2022/03/22 09:08:42;;;;;;;17.00;13.17;;;;;;;11.40;90.18;100586.03;5001680;28;20221;-78
2022/03/22 09:11:11;;;;;;;17.37;12.93;;;;;;;11.77;88.36;100590.53;5001129;28;20199;-78
2022/03/22 09:13:42;;;;;;;19.93;13.03;;;;;;;12.03;85.95;100590.22;5001253;28;20209;-79
2022/03/22 09:16:13;;;;;;;16.10;12.57;;;;;;;12.13;82.38;100587.13;5002877;28;20682;-79
2022/03/22 09:18:43;;;;;;;22.43;13.77;;;;;;;12.15;81.05;100586.13;4999312;28;20282;-79
2022/03/22 09:21:11;;;;;;;18.87;12.63;;;;;;;12.42;77.70;100583.06;4998772;28;20206;-79
2022/03/22 09:23:41;;;;;;;18.63;12.50;;;;;;;12.68;70.13;100581.81;5001136;28;20187;-79
2022/03/22 09:26:10;;;;;;;16.17;12.07;;;;;;;12.86;63.94;100588.88;5005735;28;20195;-79
2022/03/22 09:28:39;;;;;;;16.10;11.70;;;;;;;12.85;58.28;100588.00;5002734;28;20320;-79
2022/03/22 09:31:09;;;;;;;14.93;11.17;;;;;;;13.04;57.74;100587.06;4998425;28;20203;-79
2022/03/22 09:33:38;;;;;;;14.53;11.27;;;;;;;12.93;55.33;100587.59;5004111;28;20225;-79
2022/03/22 09:36:07;;;;;;;19.70;11.37;;;;;;;12.95;55.95;100590.19;5051197;28;20225;-79
2022/03/22 09:38:37;;;;;;;15.33;11.20;;;;;;;13.30;57.32;100577.75;5045813;28;20201;-79
2022/03/22 09:41:11;;;;;;;19.47;11.37;;;;;;;13.46;53.07;100582.19;5044452;28;20288;-79
2022/03/22 09:43:40;;;;;;;14.00;10.80;;;;;;;13.94;50.54;100576.97;5050591;28;20212;-79
2022/03/22 09:46:09;;;;;;;15.93;11.27;;;;;;;14.19;51.81;100577.34;5052838;28;20193;-79
2022/03/22 09:48:39;;;;;;;18.10;11.13;;;;;;;14.39;49.33;100576.19;5048884;28;20201;-79
2022/03/22 09:53:53;;;;;;;15.50;10.27;;;;;;;15.14;43.65;100580.69;5032547;28;20201;-79
2022/03/22 09:56:26;;;;;;;14.37;10.77;;;;;;;15.31;41.63;100576.13;5029226;28;20312;-79
2022/03/22 09:58:54;;;;;;;14.63;10.83;;;;;;;15.24;41.15;100561.44;5026848;28;20186;-79
2022/03/22 10:01:23;;;;;;;17.97;11.23;;;;;;;15.23;42.09;100568.59;4986081;28;20206;-79
2022/03/22 10:04:00;;;;;;;16.57;11.10;;;;;;;15.63;41.67;100566.16;4980134;28;20215;-78
2022/03/22 10:06:30;;;;;;;13.23;10.90;;;;;;;15.81;42.19;100569.50;4980318;28;20202;-79
2022/03/22 10:09:00;;;;;;;16.07;11.57;;;;;;;15.87;41.19;100561.97;4973010;28;20203;-79
2022/03/22 10:11:39;;;;;;;16.37;10.80;;;;;;;15.90;39.56;100567.09;4980711;28;20203;-79
2022/03/22 10:14:10;;;;;;;16.27;11.77;;;;;;;15.65;39.68;100564.28;5001533;28;20199;-79
2022/03/22 10:16:48;;;;;;;13.53;10.23;;;;;;;16.30;38.60;100556.53;4982735;28;20219;-79
2022/03/22 10:19:22;;;;;;;21.47;17.93;;;;;;;15.84;39.34;100556.81;4982653;28;20230;-79
2022/03/22 10:21:52;;;;;;;15.13;10.77;;;;;;;16.43;37.57;100548.56;4981219;28;20203;-79
2022/03/22 10:24:21;;;;;;;14.20;10.87;;;;;;;16.61;37.13;100550.03;4972390;28;20208;-79
2022/03/22 10:26:52;;;;;;;13.43;11.03;;;;;;;16.02;36.22;100552.13;4972522;28;20192;-79
2022/03/22 10:29:22;;;;;;;14.23;10.70;;;;;;;16.22;37.25;100540.16;5028018;28;20253;-79
2022/03/22 10:31:51;;;;;;;15.17;11.07;;;;;;;16.57;38.09;100538.66;5023628;28;20194;-79
2022/03/22 10:34:29;;;;;;;13.20;10.13;;;;;;;16.64;36.53;100544.47;5026975;28;20194;-79
2022/03/22 10:36:57;;;;;;;12.63;10.27;;;;;;;16.52;36.55;100539.94;5025613;28;20225;-79
2022/03/22 10:39:25;;;;;;;15.87;10.93;;;;;;;16.93;35.90;100539.00;5026596;28;20189;-80
2022/03/22 10:42:05;;;;;;;13.33;10.30;;;;;;;17.05;35.91;100538.16;5028906;28;20225;-79
2022/03/22 10:44:36;;;;;;;13.93;11.17;;;;;;;16.99;35.50;100543.94;5015285;28;20204;-79
2022/03/22 10:47:08;;;;;;;12.33;10.33;;;;;;;17.12;36.40;100534.94;5001860;28;20203;-79
2022/03/22 10:49:37;;;;;;;12.83;10.67;;;;;;;17.44;35.89;100539.88;4983024;28;20203;-79
2022/03/22 10:52:21;;;;;;;13.90;10.40;;;;;;;17.36;35.87;100531.50;4974359;28;20207;-79
2022/03/22 10:54:50;;;;;;;12.97;10.43;;;;;;;17.63;35.57;100531.38;5004828;28;20562;-79
2022/03/22 10:57:28;;;;;;;12.37;10.27;;;;;;;17.59;35.07;100530.75;4978651;28;20380;-79
2022/03/22 11:00:00;;;;;;;14.43;10.13;;;;;;;17.59;35.36;100530.75;4980657;28;20301;-81
2022/03/22 11:02:33;;;;;;;11.30;10.10;;;;;;;18.12;34.34;100520.69;4979786;28;20192;-80
2022/03/22 11:05:05;;;;;;;13.37;10.13;;;;;;;18.21;33.28;100530.72;4982330;28;20215;-80
2022/03/22 11:07:37;;;;;;;11.67;9.33;;;;;;;18.08;33.07;100523.72;4980881;28;20249;-79
2022/03/22 11:10:06;;;;;;;11.10;9.23;;;;;;;18.47;32.66;100527.94;4982622;28;20260;-79
2022/03/22 11:12:37;;;;;;;12.03;9.30;;;;;;;18.50;32.20;100525.88;4981553;28;20196;-79
2022/03/22 11:15:09;;;;;;;13.07;9.53;;;;;;;18.58;32.31;100523.47;4975272;28;20191;-79
2022/03/22 11:17:39;;;;;;;11.47;9.40;;;;;;;18.74;32.14;100517.00;4992223;28;20218;-79
2022/03/22 11:20:10;;;;;;;11.07;9.70;;;;;;;19.04;31.01;100513.78;4991414;28;20202;-79
2022/03/22 11:22:49;;;;;;;10.23;9.03;;;;;;;19.14;31.20;100510.25;4990820;28;20191;-79
2022/03/22 11:25:21;;;;;;;15.13;10.23;;;;;;;19.06;32.06;100512.69;4989289;28;20280;-80
2022/03/22 11:28:13;;;;;;;22.80;15.90;;;;;;;19.10;31.52;100498.03;4988211;28;20199;-80
2022/03/22 11:30:42;;;;;;;10.80;9.53;;;;;;;19.56;31.69;100502.50;4991959;28;20199;-79
2022/03/22 11:35:58;;;;;;;11.63;9.87;;;;;;;19.36;31.78;100497.81;4984178;28;20204;-80
2022/03/22 11:38:44;;;;;;;14.00;10.23;;;;;;;19.96;31.28;100488.50;4981080;28;20219;-80
2022/03/22 11:44:19;;;;;;;9.77;8.40;;;;;;;20.15;29.16;100490.53;4991152;28;20198;-79
2022/03/22 11:46:50;;;;;;;10.53;8.47;;;;;;;19.79;28.46;100481.00;4952641;29;20204;-79
2022/03/22 11:49:22;;;;;;;10.48;8.88;;;;;;;19.62;28.71;100490.41;4953513;28;20211;-79
2022/03/22 11:51:53;;;;;;;9.95;8.95;;;;;;;19.82;28.81;100486.09;4919512;28;20192;-79
2022/03/22 11:54:24;;;;;;;10.15;8.52;;;;;;;19.78;28.44;100477.41;4961311;28;20202;-80
2022/03/22 11:56:58;;;;;;;10.63;8.40;;;;;;;20.05;28.26;100463.53;4961306;28;20241;-80
2022/03/22 11:59:40;;;;;;;9.55;8.52;;;;;;;20.04;28.77;100469.91;4950460;29;20231;-79
2022/03/22 12:02:15;;;;;;;12.18;8.55;;;;;;;20.32;27.67;100471.16;4942803;29;20192;-80